Time;durP1;ratioP1;P1;durP2;ratioP2;P2;SDS_P1;SDS_P2;PMS_P1;PMS_P2;Temp;Humidity;BMP_temperature;BMP_pressure;BME280_temperature;BME280_humidity;BME280_pressure;Samples;Min_cycle;Max_cycle;Signal;HPM_P1;HPM_P2
2022/01/12 00:01:48;;;;;;;9.65;8.93;;;;;;;1.56;78.75;100429.88;4091418;28;20203;-54
2022/01/12 00:03:49;;;;;;;10.07;9.18;;;;;;;1.57;78.87;100423.47;4090699;28;20199;-53
2022/01/12 00:05:52;;;;;;;8.50;7.80;;;;;;;1.60;77.66;100427.72;4109932;28;20289;-53
2022/01/12 00:07:54;;;;;;;7.88;7.07;;;;;;;1.63;77.75;100424.72;4104895;28;20253;-53
2022/01/12 00:09:55;;;;;;;6.35;5.82;;;;;;;1.61;78.03;100419.47;4089901;28;20286;-53
2022/01/12 00:11:59;;;;;;;9.43;8.52;;;;;;;1.59;77.85;100415.22;4108841;28;20745;-53
2022/01/12 00:14:00;;;;;;;7.97;7.28;;;;;;;1.58;78.28;100422.47;4075995;29;20204;-54
2022/01/12 00:16:03;;;;;;;8.45;7.75;;;;;;;1.56;78.23;100419.09;4104723;28;20273;-53
2022/01/12 00:18:05;;;;;;;9.30;8.50;;;;;;;1.54;78.00;100417.53;4103544;28;20644;-55
2022/01/12 00:20:07;;;;;;;9.95;8.13;;;;;;;1.53;77.90;100419.34;4071884;29;20260;-54
2022/01/12 00:22:09;;;;;;;8.38;7.57;;;;;;;1.51;78.22;100421.38;4077613;29;20219;-53
2022/01/12 00:24:11;;;;;;;7.68;7.05;;;;;;;1.48;78.57;100426.19;4092182;28;20340;-53
2022/01/12 00:26:25;;;;;;;9.07;8.35;;;;;;;1.48;78.51;100426.19;4110066;28;20628;-53
2022/01/12 00:33:11;;;;;;;12.38;10.30;;;;;;;1.41;78.38;100425.09;4108527;28;20285;-54
2022/01/12 00:35:13;;;;;;;10.98;9.70;;;;;;;1.45;78.31;100432.72;4094043;28;20298;-53
2022/01/12 00:37:15;;;;;;;12.50;11.13;;;;;;;1.42;78.52;100433.00;4093184;28;20214;-53
2022/01/12 00:39:17;;;;;;;15.02;11.23;;;;;;;1.42;78.55;100435.69;4092752;28;20286;-55
2022/01/12 00:41:19;;;;;;;10.43;9.40;;;;;;;1.43;78.17;100426.66;4094184;28;20279;-54
2022/01/12 00:43:22;;;;;;;10.25;9.23;;;;;;;1.42;78.42;100437.56;4092488;28;20212;-54
2022/01/12 00:45:24;;;;;;;21.08;11.18;;;;;;;1.41;78.36;100439.41;4095366;28;20215;-53
2022/01/12 00:47:25;;;;;;;14.10;12.15;;;;;;;1.42;78.77;100449.19;4095346;28;20314;-54
2022/01/12 00:49:27;;;;;;;18.00;13.38;;;;;;;1.43;78.41;100441.97;4093778;28;20238;-54
2022/01/12 00:51:33;;;;;;;15.65;13.77;;;;;;;1.49;78.17;100452.16;4087186;28;20724;-53
2022/01/12 00:53:35;;;;;;;24.38;15.73;;;;;;;1.55;78.47;100457.81;4104545;28;20298;-53
2022/01/12 00:55:37;;;;;;;21.10;15.07;;;;;;;1.46;78.31;100455.13;4072137;29;20623;-53
2022/01/12 00:57:40;;;;;;;19.08;16.13;;;;;;;1.44;78.84;100460.69;4088264;28;20219;-53
2022/01/12 00:59:42;;;;;;;16.38;12.60;;;;;;;1.49;78.69;100465.66;4088243;28;21768;-55
2022/01/12 01:01:44;;;;;;;13.70;12.35;;;;;;;1.44;78.43;100460.69;4089225;28;20211;-53
2022/01/12 01:03:50;;;;;;;14.82;11.88;;;;;;;1.45;78.81;100462.41;4088274;28;20298;-54
2022/01/12 01:05:52;;;;;;;21.85;13.73;;;;;;;1.50;77.90;100464.66;4091127;28;20214;-53
2022/01/12 01:07:54;;;;;;;15.95;13.25;;;;;;;1.50;78.46;100454.72;4091924;28;20315;-54
2022/01/12 01:10:05;;;;;;;17.10;13.45;;;;;;;1.52;78.72;100463.53;4096664;28;20231;-55
2022/01/12 01:12:07;;;;;;;15.60;13.10;;;;;;;1.51;78.55;100456.44;4098053;28;20207;-53
2022/01/12 01:14:21;;;;;;;15.45;14.05;;;;;;;1.62;77.96;100450.00;4097252;28;20199;-53
2022/01/12 01:16:54;;;;;;;14.70;12.43;;;;;;;1.51;78.88;100445.63;4082066;28;20246;-53
2022/01/12 01:25:50;;;;;;;12.02;9.77;;;;;;;1.26;78.67;100440.00;4113416;28;20210;-54
2022/01/12 01:27:51;;;;;;;12.52;11.35;;;;;;;1.24;78.83;100432.06;4094634;28;20949;-54
2022/01/12 01:29:54;;;;;;;13.38;12.18;;;;;;;1.21;78.58;100435.03;4094240;28;20278;-54
2022/01/12 01:31:56;;;;;;;11.18;10.18;;;;;;;1.18;78.78;100438.03;4111836;28;20213;-54
2022/01/12 01:34:05;;;;;;;10.90;9.90;;;;;;;1.15;78.71;100445.56;4077143;29;20216;-54
2022/01/12 01:36:07;;;;;;;10.95;10.10;;;;;;;1.11;78.82;100446.81;4094452;28;20250;-56
2022/01/12 01:38:09;;;;;;;9.57;8.77;;;;;;;1.08;79.24;100437.19;4093814;28;20205;-54
2022/01/12 01:40:13;;;;;;;9.93;8.93;;;;;;;1.07;79.21;100446.25;4092562;28;20303;-56
2022/01/12 01:42:20;;;;;;;9.15;8.45;;;;;;;1.04;78.79;100443.88;4095254;28;20394;-54
2022/01/12 01:53:29;;;;;;;9.25;8.38;;;;;;;0.87;78.96;100443.72;4110513;28;20780;-54
2022/01/12 01:55:31;;;;;;;9.00;8.10;;;;;;;0.84;79.15;100439.47;4094916;28;20894;-54
2022/01/12 01:57:33;;;;;;;7.93;7.30;;;;;;;0.80;79.22;100446.13;4108790;28;20670;-54
2022/01/12 01:59:35;;;;;;;8.65;7.85;;;;;;;0.76;79.17;100444.72;4078283;28;20724;-54
2022/01/12 02:01:37;;;;;;;8.93;8.02;;;;;;;0.74;79.15;100449.38;4107010;28;20218;-54
2022/01/12 02:03:40;;;;;;;10.90;8.63;;;;;;;0.69;79.11;100451.63;4091821;28;20787;-55
2022/01/12 02:05:43;;;;;;;9.18;8.30;;;;;;;0.68;78.95;100454.50;4100953;28;20300;-53
2022/01/12 02:07:44;;;;;;;8.57;7.88;;;;;;;0.62;79.21;100450.50;4112099;28;20227;-53
2022/01/12 02:09:46;;;;;;;9.75;8.38;;;;;;;0.59;79.40;100449.94;4094316;28;20254;-54
2022/01/12 02:11:52;;;;;;;10.60;9.63;;;;;;;0.53;79.08;100445.97;4127804;28;20696;-53
2022/01/12 02:13:54;;;;;;;8.93;8.13;;;;;;;0.49;79.33;100441.84;4123064;28;20563;-53
2022/01/12 02:15:57;;;;;;;11.32;8.15;;;;;;;0.44;79.28;100444.13;4124191;28;20785;-53
2022/01/12 02:36:29;;;;;;;9.27;8.57;;;;;;;0.12;79.39;100467.69;4127938;28;20206;-54
2022/01/12 02:40:54;;;;;;;9.63;8.73;;;;;;;0.06;79.59;100451.22;4112084;28;20223;-54
2022/01/12 02:43:09;;;;;;;9.98;9.07;;;;;;;0.02;79.81;100450.63;4111977;28;20329;-56
2022/01/12 02:54:18;;;;;;;7.53;6.93;;;;;;;-0.06;79.62;100457.72;4125045;28;20660;-56
2022/01/12 02:56:26;;;;;;;8.38;7.70;;;;;;;-0.08;79.94;100460.53;4122881;28;20258;-56
2022/01/12 02:58:28;;;;;;;8.40;7.68;;;;;;;-0.11;79.89;100455.41;4110527;28;20271;-55
2022/01/12 03:00:45;;;;;;;8.60;7.90;;;;;;;-0.13;79.73;100453.00;4125015;28;20229;-54
2022/01/12 03:02:51;;;;;;;7.40;6.75;;;;;;;-0.11;79.71;100455.41;4107370;28;20213;-54
2022/01/12 03:05:22;;;;;;;8.20;7.53;;;;;;;-0.08;79.45;100449.78;4110301;28;20241;-55
2022/01/12 03:07:24;;;;;;;7.88;7.18;;;;;;;-0.10;79.50;100445.50;4127107;28;20222;-55
2022/01/12 03:09:26;;;;;;;7.80;7.20;;;;;;;-0.16;79.66;100451.44;4129347;28;20272;-54
2022/01/12 03:11:28;;;;;;;7.93;7.32;;;;;;;-0.17;79.67;100465.88;4124657;28;20253;-56
2022/01/12 03:13:30;;;;;;;7.90;7.27;;;;;;;-0.18;79.93;100457.91;4127625;28;20217;-55
2022/01/12 03:15:39;;;;;;;7.27;6.73;;;;;;;-0.21;79.69;100460.91;4125163;28;20217;-55
2022/01/12 03:17:41;;;;;;;6.07;5.57;;;;;;;-0.22;79.69;100478.03;4125274;28;20195;-54
2022/01/12 03:19:42;;;;;;;7.30;6.70;;;;;;;-0.26;79.55;100484.66;4106919;28;20896;-55
2022/01/12 03:21:48;;;;;;;8.30;7.47;;;;;;;-0.28;79.57;100500.91;4123742;28;20210;-54
2022/01/12 03:23:51;;;;;;;6.83;6.33;;;;;;;-0.31;79.97;100495.81;4108607;28;20236;-54
2022/01/12 03:25:53;;;;;;;8.03;7.37;;;;;;;-0.30;79.92;100499.34;4111150;28;20282;-54
2022/01/12 03:28:01;;;;;;;7.93;7.13;;;;;;;-0.31;79.84;100494.94;4108991;28;20258;-54
2022/01/12 03:30:05;;;;;;;6.72;6.22;;;;;;;-0.33;79.82;100491.53;4107018;28;20720;-54
2022/01/12 03:32:12;;;;;;;6.90;6.33;;;;;;;-0.36;79.64;100498.03;4112226;28;20206;-55
2022/01/12 03:34:27;;;;;;;8.97;8.27;;;;;;;-0.29;79.61;100487.63;4111899;28;20797;-55
2022/01/12 03:38:41;;;;;;;11.30;9.93;;;;;;;-0.33;79.35;100470.91;4126659;28;20260;-53
2022/01/12 03:40:43;;;;;;;11.27;10.27;;;;;;;-0.38;79.79;100472.25;4107457;28;20222;-54
2022/01/12 03:42:45;;;;;;;11.70;10.70;;;;;;;-0.42;79.96;100481.59;4124474;28;20206;-53
2022/01/12 03:44:47;;;;;;;9.93;9.20;;;;;;;-0.35;79.95;100482.75;4107214;28;20661;-54
2022/01/12 03:46:51;;;;;;;9.80;8.90;;;;;;;-0.38;80.07;100485.72;4124429;28;20213;-53
2022/01/12 03:48:53;;;;;;;12.30;10.47;;;;;;;-0.38;80.30;100489.25;4108917;28;20238;-54
2022/01/12 03:50:56;;;;;;;9.30;8.53;;;;;;;-0.39;80.15;100492.94;4091057;28;20259;-53
2022/01/12 03:52:58;;;;;;;9.47;8.40;;;;;;;-0.41;80.16;100500.25;4107591;28;20254;-53
2022/01/12 03:54:59;;;;;;;9.57;8.80;;;;;;;-0.42;80.27;100519.25;4094035;28;20332;-57
2022/01/12 03:57:01;;;;;;;8.97;8.27;;;;;;;-0.42;80.06;100519.25;4111202;28;20591;-54
2022/01/12 03:59:04;;;;;;;10.13;9.30;;;;;;;-0.43;79.91;100525.56;4093409;28;20199;-54
2022/01/12 04:01:05;;;;;;;9.57;8.73;;;;;;;-0.45;79.94;100538.31;4125431;28;20229;-55
2022/01/12 04:03:08;;;;;;;9.77;8.97;;;;;;;-0.48;79.92;100546.66;4106408;28;20213;-53
2022/01/12 04:09:32;;;;;;;11.50;10.50;;;;;;;-0.53;79.66;100516.59;4126472;28;20264;-54
2022/01/12 04:11:33;;;;;;;11.43;10.33;;;;;;;-0.54;79.67;100514.91;4108752;28;20210;-54
2022/01/12 04:13:35;;;;;;;11.53;10.47;;;;;;;-0.57;79.97;100520.53;4122734;28;20648;-53
2022/01/12 04:15:37;;;;;;;11.03;10.03;;;;;;;-0.58;79.97;100530.44;4123237;28;20277;-53
2022/01/12 04:17:38;;;;;;;11.25;10.07;;;;;;;-0.58;79.49;100534.97;4110364;28;20270;-53
2022/01/12 04:19:40;;;;;;;9.40;8.57;;;;;;;-0.59;79.79;100531.44;4124420;28;20600;-53
2022/01/12 04:21:47;;;;;;;10.50;9.57;;;;;;;-0.61;79.83;100529.84;4124288;28;20206;-54
2022/01/12 04:23:52;;;;;;;9.67;8.97;;;;;;;-0.64;79.86;100530.97;4127964;28;20244;-54
2022/01/12 04:25:59;;;;;;;10.97;10.00;;;;;;;-0.66;79.66;100532.06;4123420;28;20210;-55
2022/01/12 04:28:02;;;;;;;11.07;10.07;;;;;;;-0.69;79.58;100527.81;4123814;28;20213;-55
2022/01/12 04:30:05;;;;;;;9.90;9.10;;;;;;;-0.72;79.77;100538.84;4127758;28;20226;-54
2022/01/12 04:32:07;;;;;;;10.03;8.93;;;;;;;-0.72;79.73;100543.34;4125974;28;20664;-52
2022/01/12 04:34:09;;;;;;;10.73;9.77;;;;;;;-0.75;79.68;100532.88;4124795;28;20233;-54
2022/01/12 04:36:12;;;;;;;12.10;10.90;;;;;;;-0.73;79.73;100536.25;4106415;28;20241;-54
2022/01/12 04:38:15;;;;;;;11.20;10.33;;;;;;;-0.76;79.68;100541.88;4106463;28;20199;-53
2022/01/12 04:40:17;;;;;;;12.37;11.23;;;;;;;-0.76;79.69;100541.88;4111901;28;20227;-52
2022/01/12 04:42:19;;;;;;;9.80;8.87;;;;;;;-0.76;79.66;100541.88;4098574;28;20252;-53
2022/01/12 04:44:21;;;;;;;11.27;10.37;;;;;;;-0.79;79.70;100542.16;4113076;28;20241;-54
2022/01/12 04:46:48;;;;;;;10.67;9.50;;;;;;;-0.79;79.44;100550.22;4129182;28;20205;-53
2022/01/12 04:48:55;;;;;;;10.10;9.23;;;;;;;-0.82;79.67;100553.16;4127811;28;20313;-54
2022/01/12 04:50:57;;;;;;;10.40;9.50;;;;;;;-0.84;79.53;100547.91;4112194;28;20667;-53
2022/01/12 04:52:59;;;;;;;11.60;10.63;;;;;;;-0.87;79.51;100534.72;4096004;28;20287;-53
2022/01/12 04:55:01;;;;;;;11.70;10.60;;;;;;;-0.86;79.72;100549.03;4112513;28;20305;-53
2022/01/12 04:57:02;;;;;;;11.77;10.77;;;;;;;-0.90;79.20;100550.25;4130583;28;20664;-54
2022/01/12 04:59:04;;;;;;;10.43;9.53;;;;;;;-0.90;79.39;100542.19;4112741;28;20203;-54
2022/01/12 05:01:13;;;;;;;11.17;10.17;;;;;;;-0.88;79.52;100540.25;4128241;28;20628;-54
2022/01/12 05:08:10;;;;;;;10.83;9.97;;;;;;;-0.87;79.31;100539.25;4129707;28;20209;-55
2022/01/12 05:12:51;;;;;;;13.23;11.93;;;;;;;-0.93;79.26;100518.28;4117778;28;20206;-54
2022/01/12 05:15:05;;;;;;;12.13;11.00;;;;;;;-0.94;79.38;100516.59;4112355;28;20837;-54
2022/01/12 05:17:06;;;;;;;12.67;11.47;;;;;;;-0.83;79.18;100520.06;4111567;28;20213;-56
2022/01/12 05:19:08;;;;;;;13.20;11.93;;;;;;;-0.82;78.81;100523.63;4128627;28;20704;-54
2022/01/12 05:21:10;;;;;;;11.93;10.87;;;;;;;-0.75;78.75;100522.13;4108795;28;20208;-54
2022/01/12 05:23:13;;;;;;;13.13;12.00;;;;;;;-0.84;78.77;100518.34;4107436;28;20221;-55
2022/01/12 05:25:17;;;;;;;13.37;12.10;;;;;;;-0.80;78.80;100518.97;4112334;28;20208;-54
2022/01/12 05:27:19;;;;;;;13.70;12.40;;;;;;;-0.90;79.26;100528.75;4128363;28;20241;-55
2022/01/12 05:29:21;;;;;;;12.30;11.20;;;;;;;-0.93;79.30;100529.03;4085603;28;20307;-54
2022/01/12 05:31:23;;;;;;;12.03;10.87;;;;;;;-0.90;79.45;100524.25;4129333;28;20285;-55
2022/01/12 05:33:25;;;;;;;12.53;11.43;;;;;;;-0.96;79.54;100530.13;4111215;28;20242;-55
2022/01/12 05:35:34;;;;;;;12.23;11.23;;;;;;;-1.00;79.50;100534.03;4113555;28;20210;-55
2022/01/12 05:37:36;;;;;;;12.10;11.17;;;;;;;-1.03;79.23;100528.06;4114802;28;20266;-55
2022/01/12 05:39:38;;;;;;;13.27;10.83;;;;;;;-1.02;79.41;100527.13;4115302;28;20214;-54
2022/01/12 05:41:59;;;;;;;10.97;9.77;;;;;;;-1.02;79.44;100524.44;4119312;28;20245;-54
2022/01/12 05:44:05;;;;;;;10.77;9.70;;;;;;;-1.00;79.38;100522.47;4109589;28;20211;-54
2022/01/12 05:46:12;;;;;;;11.00;10.00;;;;;;;-1.03;79.21;100525.38;4127865;28;20245;-54
2022/01/12 05:50:18;;;;;;;11.23;10.23;;;;;;;-1.10;79.30;100524.19;4130573;28;20268;-53
2022/01/12 05:52:19;;;;;;;10.83;9.37;;;;;;;-1.09;79.32;100528.63;4106105;28;20289;-53
2022/01/12 05:54:21;;;;;;;9.67;8.80;;;;;;;-1.08;79.43;100530.31;4110133;28;20218;-54
2022/01/12 05:56:24;;;;;;;10.40;9.50;;;;;;;-1.10;79.42;100521.50;4109710;28;20632;-53
2022/01/12 05:58:27;;;;;;;10.57;9.63;;;;;;;-1.13;79.42;100522.66;4107066;28;20649;-53
2022/01/12 06:00:29;;;;;;;11.70;10.80;;;;;;;-1.14;79.49;100530.81;4110870;28;22638;-53
2022/01/12 06:02:31;;;;;;;10.63;9.63;;;;;;;-1.16;79.41;100538.13;4110725;28;20241;-53
2022/01/12 06:04:33;;;;;;;9.57;8.77;;;;;;;-1.20;79.11;100531.31;4125473;28;20214;-54
2022/01/12 06:06:34;;;;;;;7.73;7.13;;;;;;;-1.21;79.30;100540.38;4110268;28;20242;-56
2022/01/12 06:08:36;;;;;;;9.60;8.70;;;;;;;-1.22;79.14;100550.25;4108571;28;20223;-54
2022/01/12 06:10:37;;;;;;;9.77;8.87;;;;;;;-1.20;79.05;100550.13;4125897;28;20277;-54
2022/01/12 06:12:40;;;;;;;10.17;9.27;;;;;;;-1.23;79.08;100543.16;4128627;28;20206;-55
2022/01/12 06:14:42;;;;;;;9.53;8.73;;;;;;;-1.24;78.88;100545.97;4127376;28;20210;-53
2022/01/12 06:16:44;;;;;;;10.80;9.90;;;;;;;-1.26;79.13;100550.63;4110296;28;20242;-54
2022/01/12 06:18:45;;;;;;;10.17;9.27;;;;;;;-1.28;79.04;100556.09;4123653;28;20576;-56
2022/01/12 06:20:47;;;;;;;10.87;9.87;;;;;;;-1.26;78.95;100551.50;4124435;28;20238;-56
2022/01/12 06:22:49;;;;;;;10.37;9.57;;;;;;;-1.24;79.02;100545.97;4127716;28;20232;-56
2022/01/12 06:24:51;;;;;;;11.07;10.10;;;;;;;-1.30;78.75;100541.09;4126200;28;20198;-55
2022/01/12 06:26:53;;;;;;;11.43;10.37;;;;;;;-1.30;79.07;100551.84;4112110;28;20238;-56
2022/01/12 06:29:23;;;;;;;11.00;10.13;;;;;;;-1.31;79.09;100550.13;4127288;28;20222;-53
2022/01/12 06:31:18;;;;;;;8.87;8.07;;;;;;;-1.33;78.84;100558.31;4125720;28;20206;-53
2022/01/12 06:33:19;;;;;;;8.20;7.50;;;;;;;-1.30;78.62;100571.50;4128372;28;20279;-55
2022/01/12 06:35:22;;;;;;;9.47;8.63;;;;;;;-1.35;78.54;100562.97;4110854;28;20653;-54
2022/01/12 06:37:24;;;;;;;10.83;9.87;;;;;;;-1.43;78.86;100564.56;4126040;28;20222;-55
2022/01/12 06:39:26;;;;;;;11.20;10.27;;;;;;;-1.42;78.75;100569.81;4093135;28;20317;-53
2022/01/12 06:41:28;;;;;;;11.60;10.37;;;;;;;-1.35;78.74;100567.50;4126747;28;20220;-54
2022/01/12 06:43:30;;;;;;;10.63;9.73;;;;;;;-1.40;78.64;100567.84;4125996;28;20276;-52
2022/01/12 06:45:32;;;;;;;10.77;9.77;;;;;;;-1.42;78.86;100579.72;4127773;28;20224;-52
2022/01/12 06:47:36;;;;;;;14.37;11.97;;;;;;;-1.43;78.96;100584.22;4126576;28;20301;-53
2022/01/12 06:49:38;;;;;;;11.40;10.27;;;;;;;-1.44;78.75;100578.97;4121844;28;20779;-52
2022/01/12 06:51:40;;;;;;;11.90;10.53;;;;;;;-1.43;79.08;100583.34;4125761;28;20253;-52
2022/01/12 06:53:42;;;;;;;11.70;10.60;;;;;;;-1.44;78.71;100582.50;4109610;28;20778;-52
2022/01/12 06:55:43;;;;;;;11.30;10.17;;;;;;;-1.45;78.81;100591.53;4111222;28;20234;-52
2022/01/12 06:57:45;;;;;;;11.37;10.17;;;;;;;-1.47;78.92;100603.38;4125891;28;20207;-53
2022/01/12 06:59:47;;;;;;;13.20;11.77;;;;;;;-1.50;78.64;100590.19;4107916;28;20289;-53
2022/01/12 07:01:49;;;;;;;12.13;11.07;;;;;;;-1.49;78.97;100599.97;4102849;28;20274;-53
2022/01/12 07:03:51;;;;;;;13.00;11.80;;;;;;;-1.50;78.74;100592.88;4107727;28;20218;-53
2022/01/12 07:05:52;;;;;;;13.30;10.53;;;;;;;-1.52;78.66;100605.56;4108651;28;20199;-52
2022/01/12 07:07:54;;;;;;;11.93;10.53;;;;;;;-1.55;78.59;100611.19;4123753;28;20269;-53
2022/01/12 07:09:56;;;;;;;11.87;10.77;;;;;;;-1.51;78.33;100591.16;4126563;28;20233;-53
2022/01/12 07:11:58;;;;;;;13.20;11.87;;;;;;;-1.45;78.42;100596.03;4110540;28;20210;-53
2022/01/12 07:13:59;;;;;;;14.17;12.87;;;;;;;-1.39;78.36;100590.19;4105811;28;20211;-52
2022/01/12 07:16:02;;;;;;;14.63;13.27;;;;;;;-1.43;78.12;100588.72;4122545;28;20234;-53
2022/01/12 07:18:04;;;;;;;14.07;11.93;;;;;;;-1.48;78.24;100589.09;4109847;28;20211;-53
2022/01/12 07:20:06;;;;;;;13.13;11.90;;;;;;;-1.48;78.55;100591.78;4109297;28;20222;-53
2022/01/12 07:22:08;;;;;;;15.10;13.60;;;;;;;-1.49;78.78;100600.81;4104231;28;20314;-53
2022/01/12 07:24:09;;;;;;;16.50;13.37;;;;;;;-1.50;78.89;100603.59;4112395;28;20221;-52
2022/01/12 07:26:11;;;;;;;12.77;11.47;;;;;;;-1.51;78.71;100624.25;4108736;28;20328;-53
2022/01/12 07:28:13;;;;;;;15.23;13.80;;;;;;;-1.52;78.48;100632.41;4107634;28;20657;-57
2022/01/12 07:30:15;;;;;;;12.77;11.60;;;;;;;-1.52;78.60;100643.16;4104913;28;20333;-56
2022/01/12 07:32:16;;;;;;;11.93;10.93;;;;;;;-1.53;78.58;100647.66;4092608;28;20231;-56
2022/01/12 07:34:18;;;;;;;11.13;10.13;;;;;;;-1.56;78.45;100652.41;4124989;28;20685;-54
2022/01/12 07:36:20;;;;;;;12.47;11.23;;;;;;;-1.58;78.41;100651.69;4123371;28;20210;-55
2022/01/12 07:38:22;;;;;;;15.17;12.40;;;;;;;-1.60;78.10;100657.16;4091466;28;20250;-54
2022/01/12 07:40:24;;;;;;;21.77;14.77;;;;;;;-1.62;78.34;100663.66;4112913;28;20229;-55
2022/01/12 07:42:26;;;;;;;22.37;16.77;;;;;;;-1.62;78.68;100669.03;4110467;28;20702;-54
2022/01/12 07:44:28;;;;;;;18.30;16.43;;;;;;;-1.63;78.38;100669.97;4128761;28;20731;-56
2022/01/12 07:46:29;;;;;;;28.57;16.87;;;;;;;-1.66;78.41;100672.91;4123938;28;20621;-55
2022/01/12 07:48:34;;;;;;;21.90;16.83;;;;;;;-1.65;78.19;100691.56;4109701;28;20202;-54
2022/01/12 07:50:36;;;;;;;20.47;14.43;;;;;;;-1.64;78.33;100695.09;4110052;28;20281;-55
2022/01/12 07:52:38;;;;;;;21.50;16.17;;;;;;;-1.66;78.39;100689.88;4106248;28;20208;-54
2022/01/12 07:54:40;;;;;;;17.00;15.20;;;;;;;-1.66;78.22;100699.75;4120735;28;20245;-55
2022/01/12 07:56:41;;;;;;;18.20;13.07;;;;;;;-1.65;78.46;100713.06;4110502;28;20210;-55
2022/01/12 07:58:43;;;;;;;15.43;13.93;;;;;;;-1.65;78.19;100702.31;4108899;28;20210;-54
2022/01/12 08:00:45;;;;;;;17.97;13.90;;;;;;;-1.63;77.95;100705.72;4107456;28;20727;-54
2022/01/12 08:02:50;;;;;;;15.50;14.00;;;;;;;-1.59;78.24;100707.19;4108772;28;20294;-55
2022/01/12 08:04:52;;;;;;;16.80;13.07;;;;;;;-1.61;78.31;100719.03;4109721;28;20235;-54
2022/01/12 08:06:55;;;;;;;13.73;12.40;;;;;;;-1.57;78.42;100712.44;4109189;28;20207;-54
2022/01/12 08:08:57;;;;;;;12.27;11.17;;;;;;;-1.55;78.20;100713.19;4110552;28;20207;-55
2022/01/12 08:10:59;;;;;;;14.57;12.00;;;;;;;-1.53;78.60;100709.38;4111500;28;20719;-55
2022/01/12 08:13:01;;;;;;;11.03;10.10;;;;;;;-1.55;78.29;100703.28;4112244;28;20208;-55
2022/01/12 08:15:07;;;;;;;13.00;11.10;;;;;;;-1.52;78.39;100712.94;4123345;28;20272;-55
2022/01/12 08:17:09;;;;;;;11.77;10.67;;;;;;;-1.51;78.39;100723.56;4097639;28;20215;-52
2022/01/12 08:19:11;;;;;;;12.83;11.57;;;;;;;-1.49;78.72;100718.91;4108347;28;20683;-53
2022/01/12 08:21:12;;;;;;;11.93;10.83;;;;;;;-1.41;78.52;100721.84;4125642;28;20668;-55
2022/01/12 08:23:17;;;;;;;12.23;11.13;;;;;;;-1.22;78.98;100718.59;4110313;28;20269;-54
2022/01/12 08:25:19;;;;;;;13.07;11.80;;;;;;;-0.86;79.03;100723.66;4128128;28;20202;-55
2022/01/12 08:27:20;;;;;;;12.60;11.40;;;;;;;-0.58;78.80;100712.38;4129025;28;20221;-55
2022/01/12 08:29:23;;;;;;;12.67;11.47;;;;;;;-0.47;78.11;100698.91;4109127;28;20254;-54
2022/01/12 08:31:28;;;;;;;13.60;12.30;;;;;;;-0.39;77.89;100707.19;4110920;28;20199;-52
2022/01/12 08:33:29;;;;;;;13.18;11.23;;;;;;;0.01;78.77;100723.41;4105055;28;20207;-56
2022/01/12 08:35:32;;;;;;;16.35;12.43;;;;;;;0.66;77.18;100715.91;4102128;28;20244;-56
2022/01/12 08:37:33;;;;;;;12.80;11.57;;;;;;;1.20;75.15;100724.50;4119534;28;20240;-56
2022/01/12 08:39:35;;;;;;;12.18;11.00;;;;;;;1.84;73.13;100722.22;4124812;28;20253;-55
2022/01/12 08:41:38;;;;;;;11.27;10.15;;;;;;;2.11;73.10;100725.94;4120787;28;20218;-55
2022/01/12 08:43:59;;;;;;;11.05;10.00;;;;;;;2.22;71.14;100723.06;4120565;28;20207;-54
2022/01/12 08:46:01;;;;;;;12.38;10.05;;;;;;;1.48;70.88;100709.41;4121449;28;20595;-55
2022/01/12 08:48:03;;;;;;;12.10;11.00;;;;;;;1.02;71.94;100711.81;4107943;28;20294;-56
2022/01/12 08:50:06;;;;;;;11.75;10.68;;;;;;;0.62;73.32;100703.69;4102370;28;20238;-56
2022/01/12 08:52:08;;;;;;;11.73;10.50;;;;;;;0.51;74.04;100711.00;4103916;28;20207;-55
2022/01/12 08:54:09;;;;;;;13.30;12.10;;;;;;;0.36;74.23;100707.78;4104785;28;20227;-55
2022/01/12 08:56:11;;;;;;;11.40;10.30;;;;;;;0.26;74.16;100706.00;4103085;28;20281;-55
2022/01/12 08:58:13;;;;;;;13.18;10.85;;;;;;;-0.06;75.14;100708.75;4101945;28;20214;-53
2022/01/12 09:00:15;;;;;;;12.98;11.77;;;;;;;-0.16;75.59;100720.44;4119809;28;20266;-55
2022/01/12 09:02:17;;;;;;;11.20;10.18;;;;;;;-0.13;75.53;100713.94;4101973;28;20270;-55
2022/01/12 09:04:20;;;;;;;11.07;10.07;;;;;;;-0.07;75.68;100725.03;4104129;28;20210;-55
2022/01/12 09:06:25;;;;;;;15.73;11.23;;;;;;;0.00;75.49;100737.84;4106807;28;20211;-53
2022/01/12 09:08:27;;;;;;;12.60;11.50;;;;;;;-0.01;75.62;100743.34;4101904;28;20211;-54
2022/01/12 09:10:28;;;;;;;13.93;12.53;;;;;;;0.01;75.85;100739.56;4105389;28;20242;-55
2022/01/12 09:12:30;;;;;;;12.65;11.55;;;;;;;0.10;75.42;100738.78;4101800;28;20351;-54
2022/01/12 09:14:32;;;;;;;14.33;13.13;;;;;;;0.10;75.64;100737.94;4121514;28;20214;-55
2022/01/12 09:16:34;;;;;;;13.52;12.38;;;;;;;0.03;75.71;100743.00;4104883;28;20254;-55
2022/01/12 09:18:38;;;;;;;12.77;11.77;;;;;;;0.10;75.74;100754.94;4119820;28;20344;-55
2022/01/12 09:20:39;;;;;;;14.57;13.07;;;;;;;0.15;75.75;100758.06;4107051;28;20850;-56
2022/01/12 09:22:41;;;;;;;14.80;13.40;;;;;;;0.17;75.47;100757.94;4095689;28;20234;-55
2022/01/12 09:24:44;;;;;;;14.10;12.90;;;;;;;0.23;75.90;100761.00;4101422;28;20215;-55
2022/01/12 09:26:48;;;;;;;13.05;11.95;;;;;;;0.25;75.55;100750.94;4102837;28;20246;-55
2022/01/12 09:28:50;;;;;;;15.25;13.82;;;;;;;0.37;75.58;100749.03;4105925;28;20245;-56
2022/01/12 09:30:52;;;;;;;15.20;13.98;;;;;;;0.31;75.65;100752.25;4109787;28;20266;-56
2022/01/12 09:32:54;;;;;;;13.57;12.48;;;;;;;0.31;76.15;100753.13;4108010;28;20302;-54
2022/01/12 09:34:56;;;;;;;14.43;13.20;;;;;;;0.43;75.89;100760.16;4123467;28;20214;-56
2022/01/12 09:36:57;;;;;;;14.23;12.93;;;;;;;0.39;75.86;100750.63;4125119;28;20241;-54
2022/01/12 09:39:03;;;;;;;14.37;12.77;;;;;;;0.42;75.61;100749.50;4120478;28;20213;-55
2022/01/12 09:41:05;;;;;;;13.43;12.15;;;;;;;0.40;75.56;100748.78;4091360;28;20235;-55
2022/01/12 09:43:07;;;;;;;13.77;12.63;;;;;;;0.42;75.58;100761.09;4106563;28;20757;-55
2022/01/12 09:45:14;;;;;;;14.02;12.82;;;;;;;0.47;75.54;100758.06;4125209;28;20599;-56
2022/01/12 09:47:16;;;;;;;13.02;11.95;;;;;;;0.50;75.46;100758.63;4107428;28;20665;-56
2022/01/12 09:49:18;;;;;;;15.35;13.93;;;;;;;0.54;75.31;100759.22;4124087;28;20226;-55
2022/01/12 09:51:21;;;;;;;18.83;13.90;;;;;;;0.56;75.73;100762.63;4099807;28;20250;-56
2022/01/12 09:53:23;;;;;;;15.25;14.13;;;;;;;0.59;75.45;100767.75;4102489;28;20325;-57
2022/01/12 09:55:26;;;;;;;17.40;13.18;;;;;;;0.62;75.30;100779.09;4088093;28;20208;-56
2022/01/12 09:57:28;;;;;;;13.30;12.00;;;;;;;0.62;75.66;100784.50;4105639;28;20230;-54
2022/01/12 09:59:30;;;;;;;13.98;12.65;;;;;;;0.70;75.85;100782.03;4105902;28;20330;-55
2022/01/12 10:01:35;;;;;;;21.88;19.77;;;;;;;0.74;75.91;100782.59;4122324;28;20238;-55
2022/01/12 10:03:37;;;;;;;21.50;19.50;;;;;;;0.97;76.08;100789.53;4119897;28;20205;-56
2022/01/12 10:05:39;;;;;;;17.10;15.40;;;;;;;1.81;75.40;100782.75;4121548;28;20309;-57
2022/01/12 10:07:41;;;;;;;14.50;13.38;;;;;;;2.43;73.13;100793.16;4107419;28;20375;-54
2022/01/12 10:09:45;;;;;;;14.82;13.52;;;;;;;3.54;71.66;100791.28;4094252;28;20289;-56
2022/01/12 10:11:52;;;;;;;13.27;12.20;;;;;;;4.45;70.43;100800.13;4106784;28;20219;-54
2022/01/12 10:13:56;;;;;;;11.15;10.35;;;;;;;5.24;67.96;100799.03;4106124;28;20296;-56
2022/01/12 10:16:15;;;;;;;11.77;10.88;;;;;;;5.77;68.04;100795.06;4109234;28;20253;-56
2022/01/12 10:18:18;;;;;;;11.05;10.15;;;;;;;6.42;66.20;100794.25;4111790;28;20215;-56
2022/01/12 10:20:22;;;;;;;10.90;10.00;;;;;;;6.63;63.20;100788.31;4108574;28;20230;-56
2022/01/12 10:22:24;;;;;;;7.25;6.65;;;;;;;6.55;59.38;100793.78;4124895;28;20739;-56
2022/01/12 10:24:27;;;;;;;8.55;7.93;;;;;;;6.74;60.97;100793.41;4110000;28;20583;-55
2022/01/12 10:26:34;;;;;;;9.20;8.50;;;;;;;6.77;56.96;100790.38;4106833;28;20234;-55
2022/01/12 10:28:36;;;;;;;8.40;7.70;;;;;;;7.14;57.26;100779.78;4109393;28;20218;-55
2022/01/12 10:30:38;;;;;;;8.30;7.70;;;;;;;6.68;58.43;100778.63;4093788;28;20239;-55
2022/01/12 10:32:40;;;;;;;8.88;8.18;;;;;;;6.59;59.85;100768.78;4123218;28;20301;-56
2022/01/12 10:34:45;;;;;;;9.50;8.80;;;;;;;6.16;58.42;100760.91;4107551;28;20207;-56